createdAt,value
2023-01-02T00:01:26.535Z,9.00
2023-01-02T00:03:57.034Z,9.00
2023-01-02T00:06:25.571Z,9.00
2023-01-02T00:08:53.442Z,9.00
2023-01-02T00:11:21.398Z,9.10
2023-01-02T00:13:49.250Z,9.00
2023-01-02T00:16:17.202Z,9.00
2023-01-02T00:18:45.147Z,8.90
2023-01-02T00:21:13.435Z,8.80
2023-01-02T00:23:41.649Z,8.70
2023-01-02T00:26:09.619Z,8.50
2023-01-02T00:28:41.063Z,8.40
2023-01-02T00:31:13.157Z,8.30
2023-01-02T00:33:41.373Z,8.10
2023-01-02T00:36:13.950Z,8.10
2023-01-02T00:38:42.637Z,8.00
2023-01-02T00:41:10.768Z,8.00
2023-01-02T00:43:38.955Z,7.90
2023-01-02T00:46:11.539Z,8.00
2023-01-02T00:48:40.672Z,8.10
2023-01-02T00:51:09.622Z,8.40
2023-01-02T00:53:37.809Z,8.50
2023-01-02T00:56:05.979Z,8.60
2023-01-02T00:58:33.876Z,8.60
2023-01-02T01:01:01.914Z,8.60
2023-01-02T01:03:30.241Z,8.60
2023-01-02T01:05:58.396Z,8.60
2023-01-02T01:08:26.372Z,8.70
2023-01-02T01:10:54.243Z,8.70
2023-01-02T01:13:22.222Z,8.60
2023-01-02T01:15:50.130Z,8.60
2023-01-02T01:18:18.044Z,8.50
2023-01-02T01:20:45.947Z,8.50
2023-01-02T01:23:13.868Z,8.40
2023-01-02T01:25:41.738Z,8.40
2023-01-02T01:28:09.689Z,8.40
2023-01-02T01:30:37.546Z,8.40
2023-01-02T01:33:05.481Z,8.30
2023-01-02T01:35:35.366Z,8.40
2023-01-02T01:38:03.331Z,8.40
2023-01-02T01:40:39.175Z,8.40
2023-01-02T01:43:16.070Z,8.30
2023-01-02T01:45:45.810Z,8.30
2023-01-02T01:48:19.024Z,8.20
2023-01-02T01:50:49.431Z,8.20
2023-01-02T01:53:19.529Z,8.20
2023-01-02T01:55:52.860Z,8.20
2023-01-02T01:58:25.817Z,8.20
2023-01-02T02:00:54.275Z,8.30
2023-01-02T02:03:28.155Z,8.30
2023-01-02T02:05:57.932Z,8.40
2023-01-02T02:08:53.230Z,8.30
2023-01-02T02:11:21.871Z,8.30
2023-01-02T02:13:50.999Z,8.20
2023-01-02T02:16:18.903Z,8.20
2023-01-02T02:18:59.199Z,8.20
2023-01-02T02:21:27.095Z,8.20
2023-01-02T02:24:25.885Z,8.20
2023-01-02T02:27:14.651Z,8.10
2023-01-02T02:29:56.766Z,8.10
2023-01-02T02:32:39.348Z,8.10
2023-01-02T02:35:32.939Z,8.00
2023-01-02T02:38:27.393Z,8.00
2023-01-02T02:41:17.038Z,7.90
2023-01-02T02:44:14.296Z,7.90
2023-01-02T02:47:09.512Z,7.80
2023-01-02T02:49:49.589Z,7.80
2023-01-02T02:52:39.592Z,7.80
2023-01-02T02:55:18.009Z,7.80
2023-01-02T02:57:47.610Z,7.80
2023-01-02T03:00:18.012Z,7.70
2023-01-02T03:02:46.409Z,7.70
2023-01-02T03:05:26.654Z,7.70
2023-01-02T03:08:02.787Z,7.60
2023-01-02T03:10:53.605Z,7.50
2023-01-02T03:13:21.456Z,7.60
2023-01-02T03:16:34.832Z,7.60
2023-01-02T03:19:07.974Z,7.50
2023-01-02T03:21:47.307Z,7.50
2023-01-02T03:24:19.408Z,7.50
2023-01-02T03:26:52.635Z,7.50
2023-01-02T03:29:45.606Z,7.50
2023-01-02T03:32:34.705Z,7.50
2023-01-02T03:35:08.758Z,7.40
2023-01-02T03:37:40.959Z,7.40
2023-01-02T03:40:14.392Z,7.50
2023-01-02T03:42:52.908Z,7.50
2023-01-02T03:45:27.338Z,7.50
2023-01-02T03:47:58.237Z,7.50
2023-01-02T03:50:34.453Z,7.50
2023-01-02T03:53:03.394Z,7.50
2023-01-02T03:55:34.568Z,7.50
2023-01-02T03:58:11.368Z,7.50
2023-01-02T04:00:53.992Z,7.50
2023-01-02T04:03:29.882Z,7.50
2023-01-02T04:06:12.001Z,7.50
2023-01-02T04:08:48.878Z,7.40
2023-01-02T04:11:20.615Z,7.40
2023-01-02T04:13:53.393Z,7.50
2023-01-02T04:16:25.383Z,7.50
2023-01-02T04:19:02.801Z,7.50
2023-01-02T04:21:35.029Z,7.50
2023-01-02T04:24:31.270Z,7.40
2023-01-02T04:27:15.403Z,7.40
2023-01-02T04:29:43.290Z,7.40
2023-01-02T04:32:26.488Z,7.40
2023-01-02T04:34:59.250Z,7.40
2023-01-02T04:37:27.866Z,7.40
2023-01-02T04:39:59.661Z,7.40
2023-01-02T04:42:27.758Z,7.40
2023-01-02T04:44:55.609Z,7.40
2023-01-02T04:47:23.549Z,7.40
2023-01-02T04:49:51.471Z,7.30
2023-01-02T04:52:19.512Z,7.30
2023-01-02T04:54:47.517Z,7.30
2023-01-02T04:57:15.464Z,7.30
2023-01-02T04:59:43.412Z,7.30
2023-01-02T05:02:11.540Z,7.30
2023-01-02T05:04:39.516Z,7.30
2023-01-02T05:07:08.171Z,7.30
2023-01-02T05:09:36.068Z,7.30
2023-01-02T05:12:04.023Z,7.20
2023-01-02T05:14:32.323Z,7.20
2023-01-02T05:17:00.516Z,7.20
2023-01-02T05:19:28.416Z,7.30
2023-01-02T05:22:14.795Z,7.50
2023-01-02T05:24:42.711Z,7.70
2023-01-02T05:27:10.599Z,7.90
2023-01-02T05:29:38.543Z,8.10
2023-01-02T05:36:42.984Z,8.30
2023-01-02T05:39:15.415Z,8.30
2023-01-02T05:41:43.652Z,8.30
2023-01-02T05:44:12.235Z,8.20
2023-01-02T05:46:40.918Z,8.20
2023-01-02T05:49:10.223Z,8.30
2023-01-02T05:51:41.312Z,8.40
2023-01-02T05:54:10.154Z,8.40
2023-01-02T05:56:38.049Z,8.50
2023-01-02T05:59:09.543Z,8.50
2023-01-02T06:01:40.295Z,8.50
2023-01-02T06:04:17.585Z,8.50
2023-01-02T06:06:48.191Z,8.40
2023-01-02T06:09:17.246Z,8.20
2023-01-02T06:11:45.517Z,8.10
2023-01-02T06:14:13.442Z,8.20
2023-01-02T06:16:41.649Z,8.20
2023-01-02T06:19:09.632Z,8.40
2023-01-02T06:21:37.588Z,8.40
2023-01-02T06:24:05.490Z,8.40
2023-01-02T06:26:35.390Z,8.50
2023-01-02T06:29:04.929Z,8.50
2023-01-02T06:31:34.430Z,8.50
2023-01-02T06:34:03.669Z,8.50
2023-01-02T06:36:34.211Z,8.50
2023-01-02T06:39:02.538Z,8.40
2023-01-02T06:41:31.028Z,8.40
2023-01-02T06:43:59.021Z,8.30
2023-01-02T06:46:27.050Z,8.30
2023-01-02T06:48:54.942Z,8.20
2023-01-02T06:51:24.491Z,8.10
2023-01-02T06:53:52.891Z,8.00
2023-01-02T06:56:21.892Z,8.10
2023-01-02T06:58:50.097Z,8.10
2023-01-02T07:01:23.328Z,8.20
2023-01-02T07:03:51.922Z,8.30
2023-01-02T07:06:22.023Z,8.30
2023-01-02T07:08:50.537Z,8.40
2023-01-02T07:11:24.175Z,8.50
2023-01-02T07:13:56.139Z,8.50
2023-01-02T07:16:25.211Z,8.60
2023-01-02T07:18:56.978Z,8.70
2023-01-02T07:21:27.886Z,8.70
2023-01-02T07:23:56.084Z,8.70
2023-01-02T07:26:24.066Z,8.70
2023-01-02T07:28:52.015Z,8.60
2023-01-02T07:31:21.361Z,8.50
2023-01-02T07:33:49.881Z,8.60
2023-01-02T07:36:20.494Z,8.50
2023-01-02T07:38:54.972Z,8.40
2023-01-02T07:41:28.435Z,8.40
2023-01-02T07:43:57.434Z,8.30
2023-01-02T07:46:26.384Z,8.30
2023-01-02T07:48:54.408Z,8.30
2023-01-02T07:51:26.958Z,8.30
2023-01-02T07:53:57.106Z,8.30
2023-01-02T07:56:26.009Z,8.20
2023-01-02T07:58:54.233Z,8.10
2023-01-02T08:01:22.504Z,8.10
2023-01-02T08:03:50.608Z,8.10
2023-01-02T08:06:19.809Z,8.10
2023-01-02T08:08:48.168Z,8.10
2023-01-02T08:11:19.196Z,8.00
2023-01-02T08:13:48.093Z,8.00
2023-01-02T08:16:18.465Z,8.00
2023-01-02T08:18:47.981Z,8.10
2023-01-02T08:21:16.342Z,8.10
2023-01-02T08:23:45.162Z,8.10
2023-01-02T08:26:15.814Z,8.10
2023-01-02T08:28:44.449Z,8.10
2023-01-02T08:31:21.964Z,8.20
2023-01-02T08:33:50.056Z,8.20
2023-01-02T08:36:19.634Z,8.30
2023-01-02T08:38:47.655Z,8.40
2023-01-02T08:41:16.401Z,8.50
2023-01-02T08:43:44.376Z,8.60
2023-01-02T08:46:12.401Z,8.70
2023-01-02T08:48:40.365Z,8.80
2023-01-02T08:51:08.437Z,8.90
2023-01-02T08:53:36.400Z,8.80
2023-01-02T08:56:30.439Z,8.90
2023-01-02T08:59:09.920Z,9.00
2023-01-02T09:01:38.574Z,9.10
2023-01-02T09:04:12.061Z,9.20
2023-01-02T09:06:44.109Z,9.30
2023-01-02T09:09:15.971Z,9.30
2023-01-02T09:11:53.796Z,9.40
2023-01-02T09:14:23.014Z,9.50
2023-01-02T09:16:53.260Z,9.60
2023-01-02T09:19:32.136Z,9.70
2023-01-02T09:22:15.821Z,9.70
2023-01-02T09:24:44.090Z,9.70
2023-01-02T09:27:15.386Z,9.70
2023-01-02T09:29:43.320Z,9.70
2023-01-02T09:32:11.338Z,9.80
2023-01-02T09:34:39.298Z,9.90
2023-01-02T09:37:07.415Z,10.10
2023-01-02T09:39:35.436Z,10.10
2023-01-02T09:42:07.897Z,10.20
2023-01-02T09:45:08.534Z,10.30
2023-01-02T09:47:38.066Z,10.40
2023-01-02T09:50:14.142Z,10.50
2023-01-02T09:52:47.996Z,10.60
2023-01-02T09:55:30.380Z,10.70
2023-01-02T09:58:24.114Z,10.80
2023-01-02T10:00:52.582Z,10.90
2023-01-02T10:03:34.722Z,11.00
2023-01-02T10:06:10.478Z,11.10
2023-01-02T10:08:51.744Z,11.20
2023-01-02T10:11:50.656Z,11.30
2023-01-02T10:14:46.431Z,11.40
2023-01-02T10:17:21.024Z,11.50
2023-01-02T10:20:08.126Z,11.60
2023-01-02T10:22:44.032Z,11.70
2023-01-02T10:25:34.760Z,11.80
2023-01-02T10:28:20.873Z,11.90
2023-01-02T10:30:55.934Z,11.90
2023-01-02T10:33:38.775Z,12.00
2023-01-02T10:36:09.674Z,12.10
2023-01-02T10:38:40.166Z,12.10
2023-01-02T10:41:08.119Z,12.20
2023-01-02T10:43:38.271Z,12.20
2023-01-02T10:46:06.490Z,12.30
2023-01-02T10:48:38.316Z,12.40
2023-01-02T10:51:12.986Z,12.40
2023-01-02T10:53:44.316Z,12.50
2023-01-02T10:56:22.787Z,12.50
2023-01-02T10:58:54.339Z,12.50
2023-01-02T11:01:23.932Z,12.60
2023-01-02T11:04:12.403Z,12.60
2023-01-02T11:06:52.257Z,12.70
2023-01-02T11:09:23.660Z,12.70
2023-01-02T11:11:52.948Z,12.70
2023-01-02T11:14:39.684Z,12.80
2023-01-02T11:17:25.882Z,12.90
2023-01-02T11:19:58.002Z,12.90
2023-01-02T11:22:36.215Z,13.00
2023-01-02T11:25:18.215Z,13.00
2023-01-02T11:27:47.947Z,13.10
2023-01-02T11:30:43.631Z,13.10
2023-01-02T11:33:32.912Z,13.20
2023-01-02T11:36:13.080Z,13.30
2023-01-02T11:38:48.580Z,13.40
2023-01-02T11:42:08.978Z,13.50
2023-01-02T11:45:03.878Z,13.60
2023-01-02T11:47:48.952Z,13.70
2023-01-02T11:50:23.331Z,13.80
2023-01-02T11:53:03.854Z,13.80
2023-01-02T11:55:59.363Z,13.80
2023-01-02T11:58:48.255Z,13.90
2023-01-02T12:01:26.218Z,13.90
2023-01-02T12:03:55.026Z,13.90
2023-01-02T12:06:34.279Z,14.00
2023-01-02T12:09:12.479Z,14.00
2023-01-02T12:12:04.756Z,14.10
2023-01-02T12:14:35.516Z,14.20
2023-01-02T12:17:35.687Z,14.10
2023-01-02T12:20:42.235Z,14.20
2023-01-02T12:23:53.988Z,14.20
2023-01-02T12:26:42.782Z,14.20
2023-01-02T12:29:48.018Z,14.30
2023-01-02T12:32:47.263Z,14.40
2023-01-02T12:35:58.830Z,14.40
2023-01-02T12:38:58.456Z,14.40
2023-01-02T12:41:30.631Z,14.50
2023-01-02T12:44:17.471Z,14.50
2023-01-02T12:47:28.969Z,14.60
2023-01-02T12:50:15.525Z,14.80
2023-01-02T12:52:55.214Z,14.90
2023-01-02T12:55:44.994Z,15.00
2023-01-02T12:58:43.926Z,15.00
2023-01-02T13:01:20.844Z,15.00
2023-01-02T13:03:56.132Z,15.00
2023-01-02T13:06:46.968Z,15.00
2023-01-02T13:09:38.917Z,15.00
2023-01-02T13:12:23.714Z,14.90
2023-01-02T13:14:59.189Z,14.90
2023-01-02T13:17:46.019Z,14.80
2023-01-02T13:20:20.085Z,14.70
2023-01-02T13:22:55.781Z,14.80
2023-01-02T13:25:25.493Z,14.70
2023-01-02T13:27:56.399Z,14.70
2023-01-02T13:30:36.385Z,14.70
2023-01-02T13:33:12.783Z,14.70
2023-01-02T13:35:40.836Z,14.70
2023-01-02T13:38:12.681Z,14.60
2023-01-02T13:40:41.488Z,14.60
2023-01-02T13:43:17.088Z,14.50
2023-01-02T13:45:51.235Z,14.50
2023-01-02T13:48:32.340Z,14.40
2023-01-02T13:51:23.591Z,14.40
2023-01-02T13:53:54.150Z,14.30
2023-01-02T13:56:28.552Z,14.20
2023-01-02T13:58:59.487Z,14.10
2023-01-02T14:01:39.772Z,14.10
2023-01-02T14:04:21.233Z,14.00
2023-01-02T14:06:54.228Z,13.90
2023-01-02T14:09:24.161Z,13.90
2023-01-02T14:12:03.998Z,13.90
2023-01-02T14:14:45.226Z,13.80
2023-01-02T14:17:24.689Z,13.70
2023-01-02T14:20:31.264Z,13.60
2023-01-02T14:23:06.097Z,13.60
2023-01-02T14:25:45.453Z,13.50
2023-01-02T14:28:26.827Z,13.50
2023-01-02T14:30:55.801Z,13.40
2023-01-02T14:33:37.754Z,13.40
2023-01-02T14:36:11.535Z,13.30
2023-01-02T14:39:00.566Z,13.30
2023-01-02T14:42:09.439Z,13.30
2023-01-02T14:44:55.368Z,13.30
2023-01-02T14:47:38.726Z,13.20
2023-01-02T14:50:14.711Z,13.10
2023-01-02T14:52:58.938Z,13.10
2023-01-02T14:55:39.450Z,13.10
2023-01-02T14:58:31.217Z,13.00
2023-01-02T15:01:04.498Z,13.00
2023-01-02T15:04:00.873Z,13.00
2023-01-02T15:06:42.803Z,13.00
2023-01-02T15:09:18.951Z,13.00
2023-01-02T15:12:16.451Z,13.00
2023-01-02T15:14:45.177Z,13.00
2023-01-02T15:17:21.004Z,12.90
2023-01-02T15:19:49.984Z,12.90
2023-01-02T15:22:20.239Z,12.80
2023-01-02T15:24:54.124Z,12.80
2023-01-02T15:27:23.752Z,12.70
2023-01-02T15:29:55.181Z,12.60
2023-01-02T15:32:23.051Z,12.50
2023-01-02T15:34:51.768Z,12.50
2023-01-02T15:37:28.455Z,12.30
2023-01-02T15:40:01.150Z,12.20
2023-01-02T15:42:47.845Z,12.10
2023-01-02T15:45:18.106Z,12.10
2023-01-02T15:47:48.900Z,11.90
2023-01-02T15:50:25.947Z,11.90
2023-01-02T15:52:58.626Z,11.80
2023-01-02T15:55:29.385Z,11.80
2023-01-02T15:57:58.114Z,11.80
2023-01-02T16:00:40.657Z,11.80
2023-01-02T16:03:13.744Z,11.80
2023-01-02T16:05:55.492Z,11.80
2023-01-02T16:08:38.172Z,11.80
2023-01-02T16:11:06.362Z,11.70
2023-01-02T16:14:02.128Z,11.70
2023-01-02T16:16:45.458Z,11.80
2023-01-02T16:19:34.426Z,11.70
2023-01-02T16:22:22.859Z,11.60
2023-01-02T16:25:12.531Z,11.50
2023-01-02T16:28:36.092Z,11.40
2023-01-02T16:31:17.701Z,11.30
2023-01-02T16:33:54.255Z,11.20
2023-01-02T16:36:25.781Z,11.20
2023-01-02T16:39:01.069Z,11.10
2023-01-02T16:41:45.713Z,11.00
2023-01-02T16:44:15.708Z,10.90
2023-01-02T16:46:46.835Z,10.90
2023-01-02T16:49:22.298Z,10.90
2023-01-02T16:51:52.895Z,10.90
2023-01-02T16:54:21.555Z,10.80
2023-01-02T16:56:50.933Z,10.80
2023-01-02T16:59:18.822Z,10.70
2023-01-02T17:01:46.744Z,10.70
2023-01-02T17:04:16.250Z,10.50
2023-01-02T17:06:44.393Z,10.40
2023-01-02T17:09:12.307Z,10.30
2023-01-02T17:12:00.648Z,10.20
2023-01-02T17:14:30.267Z,10.10
2023-01-02T17:16:58.754Z,10.10
2023-01-02T17:19:27.055Z,10.10
2023-01-02T17:21:55.046Z,10.10
2023-01-02T17:24:23.032Z,10.10
2023-01-02T17:26:50.999Z,10.10
2023-01-02T17:29:19.038Z,10.20
2023-01-02T17:31:46.968Z,10.20
2023-01-02T17:34:14.860Z,10.10
2023-01-02T17:36:43.546Z,10.10
2023-01-02T17:39:11.516Z,10.20
2023-01-02T17:41:39.464Z,10.30
2023-01-02T17:44:07.444Z,10.30
2023-01-02T17:49:23.537Z,10.30
2023-01-02T17:51:51.457Z,10.30
2023-01-02T17:54:19.629Z,10.40
2023-01-02T17:56:47.640Z,10.40
2023-01-02T17:59:20.269Z,10.50
2023-01-02T18:01:48.659Z,10.60
2023-01-02T18:04:17.153Z,10.80
2023-01-02T18:06:45.130Z,10.90
2023-01-02T18:09:13.876Z,10.90
2023-01-02T18:11:45.256Z,10.70
2023-01-02T18:14:20.199Z,10.70
2023-01-02T18:16:48.696Z,10.70
2023-01-02T18:19:22.922Z,10.70
2023-01-02T18:21:51.794Z,10.80
2023-01-02T18:24:24.515Z,10.80
2023-01-02T18:26:57.593Z,10.80
2023-01-02T18:29:26.311Z,10.90
2023-01-02T18:31:55.558Z,11.10
2023-01-02T18:37:36.274Z,11.30
2023-01-02T18:40:24.059Z,11.40
2023-01-02T18:42:59.677Z,11.40
2023-01-02T18:45:28.875Z,11.40
2023-01-02T18:47:58.719Z,11.40
2023-01-02T18:50:39.922Z,11.50
2023-01-02T18:53:19.783Z,11.50
2023-01-02T18:55:48.032Z,11.60
2023-01-02T18:58:52.775Z,11.60
2023-01-02T19:01:28.883Z,11.60
2023-01-02T19:04:28.685Z,11.60
2023-01-02T19:07:16.556Z,11.60
2023-01-02T19:09:44.555Z,11.60
2023-01-02T19:12:33.951Z,11.60
2023-01-02T19:15:26.070Z,11.60
2023-01-02T19:17:57.615Z,11.60
2023-01-02T19:20:29.770Z,11.60
2023-01-02T19:23:00.980Z,11.80
2023-01-02T19:25:29.231Z,11.80
2023-01-02T19:27:59.120Z,11.80
2023-01-02T19:30:37.384Z,11.80
2023-01-02T19:33:38.351Z,11.80
2023-01-02T19:36:15.456Z,11.80
2023-01-02T19:38:47.018Z,11.80
2023-01-02T19:41:14.984Z,11.80
2023-01-02T19:43:45.968Z,11.80
2023-01-02T19:46:13.972Z,11.80
2023-01-02T19:48:42.140Z,11.80
2023-01-02T19:51:10.868Z,11.80
2023-01-02T19:53:38.786Z,11.70
2023-01-02T19:56:07.130Z,11.70
2023-01-02T19:58:35.388Z,11.70
2023-01-02T20:01:03.360Z,11.60
2023-01-02T20:03:31.373Z,11.60
2023-01-02T20:05:59.300Z,11.60
2023-01-02T20:08:29.258Z,11.50
2023-01-02T20:10:57.259Z,11.50
2023-01-02T20:13:25.139Z,11.50
2023-01-02T20:15:53.169Z,11.40
2023-01-02T20:18:21.166Z,11.40
2023-01-02T20:20:49.131Z,11.40
2023-01-02T20:23:17.343Z,11.40
2023-01-02T20:25:45.215Z,11.30
2023-01-02T20:28:13.089Z,11.40
2023-01-02T20:30:40.981Z,11.40
2023-01-02T20:33:08.922Z,11.30
2023-01-02T20:35:36.838Z,11.30
2023-01-02T20:38:04.835Z,11.20
2023-01-02T20:40:32.792Z,11.10
2023-01-02T20:43:00.681Z,11.00
2023-01-02T20:45:28.623Z,11.00
2023-01-02T20:47:56.515Z,10.90
2023-01-02T20:50:24.419Z,10.90
2023-01-02T20:52:56.640Z,10.80
2023-01-02T20:55:25.302Z,10.70
2023-01-02T20:57:53.672Z,10.70
2023-01-02T21:00:22.059Z,10.70
2023-01-02T21:02:50.055Z,10.60
2023-01-02T21:05:18.366Z,10.60
2023-01-02T21:07:46.329Z,10.60
2023-01-02T21:10:14.346Z,10.50
2023-01-02T21:13:00.833Z,10.50
2023-01-02T21:15:45.948Z,10.40
2023-01-02T21:18:26.300Z,10.30
2023-01-02T21:20:57.118Z,10.20
2023-01-02T21:23:26.664Z,10.20
2023-01-02T21:25:54.738Z,10.20
2023-01-02T21:28:23.446Z,10.20
2023-01-02T21:30:52.339Z,10.20
2023-01-02T21:33:22.943Z,10.20
2023-01-02T21:35:52.267Z,10.20
2023-01-02T21:38:22.237Z,10.10
2023-01-02T21:40:50.967Z,10.20
2023-01-02T21:43:19.319Z,10.20
2023-01-02T21:45:47.415Z,10.20
2023-01-02T21:48:15.315Z,10.20
2023-01-02T21:50:43.311Z,10.20
2023-01-02T21:53:11.299Z,10.20
2023-01-02T21:55:39.195Z,10.20
2023-01-02T21:58:15.229Z,10.20
2023-01-02T22:00:44.029Z,10.20
2023-01-02T22:03:12.632Z,10.20
2023-01-02T22:05:41.247Z,10.20
2023-01-02T22:10:44.944Z,10.20
2023-01-02T22:13:12.919Z,10.20
2023-01-02T22:15:40.895Z,10.20
2023-01-02T22:18:09.033Z,10.20
2023-01-02T22:20:37.276Z,10.20
2023-01-02T22:23:05.196Z,10.20
2023-01-02T22:25:33.392Z,10.20
2023-01-02T22:28:01.466Z,10.20
2023-01-02T22:30:34.366Z,10.20
2023-01-02T22:33:03.378Z,10.20
2023-01-02T22:35:31.425Z,10.10
2023-01-02T22:38:00.384Z,10.10
2023-01-02T22:40:29.575Z,10.10
2023-01-02T22:43:06.145Z,10.10
2023-01-02T22:45:43.863Z,10.10
2023-01-02T22:48:24.438Z,10.00
2023-01-02T22:50:56.019Z,10.00
2023-01-02T22:53:37.619Z,9.90
2023-01-02T22:56:35.687Z,9.90
2023-01-02T22:59:03.619Z,9.80
2023-01-02T23:01:33.281Z,9.80
2023-01-02T23:04:01.424Z,9.80
2023-01-02T23:06:29.852Z,9.80
2023-01-02T23:08:57.951Z,9.80
2023-01-02T23:11:25.875Z,9.70
2023-01-02T23:13:56.746Z,9.80
2023-01-02T23:16:43.937Z,9.70
2023-01-02T23:19:19.856Z,9.70
2023-01-02T23:21:56.455Z,9.60
2023-01-02T23:24:28.827Z,9.60
2023-01-02T23:26:58.310Z,9.60
2023-01-02T23:29:27.888Z,9.60
2023-01-02T23:31:55.894Z,9.50
2023-01-02T23:34:29.024Z,9.50
2023-01-02T23:36:58.881Z,9.50
2023-01-02T23:39:29.662Z,9.50
2023-01-02T23:41:58.499Z,9.40
2023-01-02T23:44:27.156Z,9.40
2023-01-02T23:46:56.007Z,9.40
2023-01-02T23:49:24.604Z,9.40
2023-01-02T23:51:53.187Z,9.40
2023-01-02T23:54:22.087Z,9.30
2023-01-02T23:56:51.603Z,9.40
2023-01-02T23:59:22.205Z,9.30
